sensor_id;sensor_type;location;lat;lon;timestamp;pressure;altitude;pressure_sealevel;temperature;humidity
42335;BME280;27986;42.700;24.178;2022-12-05T07:58:15;94798.50;;;6.52;95.65
42335;BME280;27986;42.700;24.178;2022-12-05T08:00:42;94796.66;;;6.48;95.04
42335;BME280;27986;42.700;24.178;2022-12-05T08:03:07;94796.81;;;6.69;93.60
42335;BME280;27986;42.700;24.178;2022-12-05T08:05:33;94792.28;;;6.86;92.14
42335;BME280;27986;42.700;24.178;2022-12-05T08:07:58;94797.47;;;7.17;90.59
42335;BME280;27986;42.700;24.178;2022-12-05T08:10:24;94789.06;;;7.32;88.72
42335;BME280;27986;42.700;24.178;2022-12-05T08:12:49;94819.06;;;7.41;88.48
42335;BME280;27986;42.700;24.178;2022-12-05T08:15:15;94816.44;;;7.37;88.27
42335;BME280;27986;42.700;24.178;2022-12-05T08:17:40;94778.06;;;6.75;88.26
42335;BME280;27986;42.700;24.178;2022-12-05T08:20:06;94816.72;;;6.71;91.47
42335;BME280;27986;42.700;24.178;2022-12-05T08:22:32;94816.56;;;6.89;90.96
42335;BME280;27986;42.700;24.178;2022-12-05T08:24:57;94790.19;;;6.81;91.21
42335;BME280;27986;42.700;24.178;2022-12-05T08:27:23;94778.44;;;6.68;91.48
42335;BME280;27986;42.700;24.178;2022-12-05T08:29:48;94807.13;;;7.01;92.97
42335;BME280;27986;42.700;24.178;2022-12-05T08:32:14;94816.72;;;7.39;91.22
42335;BME280;27986;42.700;24.178;2022-12-05T08:34:40;94808.69;;;7.32;89.80
42335;BME280;27986;42.700;24.178;2022-12-05T08:37:05;94786.19;;;6.88;90.04
42335;BME280;27986;42.700;24.178;2022-12-05T08:39:31;94787.41;;;7.11;90.53
42335;BME280;27986;42.700;24.178;2022-12-05T08:41:56;94800.94;;;7.56;88.70
42335;BME280;27986;42.700;24.178;2022-12-05T08:44:22;94765.19;;;7.72;87.79
42335;BME280;27986;42.700;24.178;2022-12-05T08:46:48;94775.78;;;7.97;85.84
42335;BME280;27986;42.700;24.178;2022-12-05T08:49:14;94788.13;;;7.85;85.23
42335;BME280;27986;42.700;24.178;2022-12-05T08:51:41;94747.16;;;7.58;86.51
42335;BME280;27986;42.700;24.178;2022-12-05T08:54:07;94783.13;;;8.09;85.10
42335;BME280;27986;42.700;24.178;2022-12-05T08:56:32;94747.56;;;7.86;83.69
42335;BME280;27986;42.700;24.178;2022-12-05T08:58:59;94759.94;;;7.94;83.74
42335;BME280;27986;42.700;24.178;2022-12-05T09:01:26;94776.25;;;8.31;84.74
42335;BME280;27986;42.700;24.178;2022-12-05T09:03:59;94759.03;;;8.58;81.58
42335;BME280;27986;42.700;24.178;2022-12-05T09:06:26;94769.03;;;7.89;81.02
42335;BME280;27986;42.700;24.178;2022-12-05T09:08:54;94775.59;;;7.66;82.55
42335;BME280;27986;42.700;24.178;2022-12-05T09:11:22;94782.63;;;7.76;83.88
42335;BME280;27986;42.700;24.178;2022-12-05T09:13:49;94783.72;;;7.34;83.47
42335;BME280;27986;42.700;24.178;2022-12-05T09:16:35;94786.41;;;7.73;85.03
42335;BME280;27986;42.700;24.178;2022-12-05T09:19:02;94764.75;;;7.29;85.08
42335;BME280;27986;42.700;24.178;2022-12-05T09:21:29;94763.22;;;7.28;84.93
42335;BME280;27986;42.700;24.178;2022-12-05T09:23:57;94758.56;;;6.95;86.01
42335;BME280;27986;42.700;24.178;2022-12-05T09:26:24;94765.91;;;7.37;86.28
42335;BME280;27986;42.700;24.178;2022-12-05T09:28:50;94773.94;;;7.59;84.71
42335;BME280;27986;42.700;24.178;2022-12-05T09:31:19;94769.53;;;7.87;83.86
42335;BME280;27986;42.700;24.178;2022-12-05T09:33:46;94768.81;;;7.57;83.17
42335;BME280;27986;42.700;24.178;2022-12-05T09:36:17;94757.22;;;7.35;86.32
42335;BME280;27986;42.700;24.178;2022-12-05T09:38:43;94747.75;;;7.32;87.93
42335;BME280;27986;42.700;24.178;2022-12-05T09:44:38;94751.84;;;6.48;94.64
42335;BME280;27986;42.700;24.178;2022-12-05T09:47:20;94743.34;;;6.58;94.14
42335;BME280;27986;42.700;24.178;2022-12-05T09:52:34;94739.72;;;6.96;93.80
42335;BME280;27986;42.700;24.178;2022-12-05T09:55:14;94737.97;;;7.28;92.11
42335;BME280;27986;42.700;24.178;2022-12-05T09:57:44;94748.47;;;7.62;89.62
42335;BME280;27986;42.700;24.178;2022-12-05T10:00:15;94737.50;;;7.15;88.30
42335;BME280;27986;42.700;24.178;2022-12-05T10:09:38;94753.63;;;7.05;88.39
42335;BME280;27986;42.700;24.178;2022-12-05T10:12:39;94756.75;;;6.54;92.91
42335;BME280;27986;42.700;24.178;2022-12-05T10:17:45;94747.03;;;6.25;95.87
42335;BME280;27986;42.700;24.178;2022-12-05T10:20:24;94751.53;;;6.46;96.13
42335;BME280;27986;42.700;24.178;2022-12-05T10:22:56;94745.88;;;6.70;93.34
42335;BME280;27986;42.700;24.178;2022-12-05T10:25:26;94736.53;;;6.35;93.57
42335;BME280;27986;42.700;24.178;2022-12-05T10:27:57;94726.53;;;6.19;94.43
42335;BME280;27986;42.700;24.178;2022-12-05T10:30:26;94738.16;;;6.27;94.60
42335;BME280;27986;42.700;24.178;2022-12-05T10:33:03;94741.00;;;6.41;94.27
42335;BME280;27986;42.700;24.178;2022-12-05T10:35:37;94729.44;;;6.63;92.49
42335;BME280;27986;42.700;24.178;2022-12-05T10:38:12;94734.00;;;6.75;91.09
42335;BME280;27986;42.700;24.178;2022-12-05T10:40:44;94694.00;;;6.75;89.79
42335;BME280;27986;42.700;24.178;2022-12-05T10:43:22;94702.28;;;7.14;88.54
42335;BME280;27986;42.700;24.178;2022-12-05T10:45:49;94724.09;;;7.54;86.83
42335;BME280;27986;42.700;24.178;2022-12-05T10:48:16;94730.56;;;7.75;85.75
42335;BME280;27986;42.700;24.178;2022-12-05T10:50:44;94713.09;;;7.50;85.16
42335;BME280;27986;42.700;24.178;2022-12-05T10:53:25;94737.50;;;7.29;86.37
42335;BME280;27986;42.700;24.178;2022-12-05T10:55:51;94704.31;;;7.28;85.31
42335;BME280;27986;42.700;24.178;2022-12-05T10:58:20;94725.16;;;7.56;84.56
42335;BME280;27986;42.700;24.178;2022-12-05T11:00:51;94697.16;;;7.42;85.67
42335;BME280;27986;42.700;24.178;2022-12-05T11:03:26;94695.16;;;7.62;84.44
42335;BME280;27986;42.700;24.178;2022-12-05T11:05:57;94678.91;;;7.67;84.02
42335;BME280;27986;42.700;24.178;2022-12-05T11:08:25;94702.44;;;8.10;82.48
42335;BME280;27986;42.700;24.178;2022-12-05T11:11:17;94699.56;;;8.04;81.75
42335;BME280;27986;42.700;24.178;2022-12-05T11:13:53;94700.19;;;8.34;80.97
42335;BME280;27986;42.700;24.178;2022-12-05T11:16:25;94700.09;;;8.43;80.20
42335;BME280;27986;42.700;24.178;2022-12-05T11:18:51;94701.03;;;8.61;79.09
42335;BME280;27986;42.700;24.178;2022-12-05T11:21:17;94684.75;;;8.44;78.86
42335;BME280;27986;42.700;24.178;2022-12-05T11:23:44;94699.63;;;8.30;77.89
42335;BME280;27986;42.700;24.178;2022-12-05T11:26:35;94692.63;;;8.20;78.97
42335;BME280;27986;42.700;24.178;2022-12-05T11:29:19;94696.47;;;8.23;78.49
42335;BME280;27986;42.700;24.178;2022-12-05T11:31:50;94686.34;;;8.31;78.99
42335;BME280;27986;42.700;24.178;2022-12-05T11:34:20;94683.75;;;8.48;77.50
42335;BME280;27986;42.700;24.178;2022-12-05T11:36:51;94660.47;;;8.41;76.79
42335;BME280;27986;42.700;24.178;2022-12-05T11:39:19;94666.19;;;8.53;77.02
42335;BME280;27986;42.700;24.178;2022-12-05T11:47:34;94678.63;;;8.66;74.80
42335;BME280;27986;42.700;24.178;2022-12-05T11:50:39;94667.13;;;8.96;74.08
42335;BME280;27986;42.700;24.178;2022-12-05T11:53:13;94669.97;;;8.70;74.00
42335;BME280;27986;42.700;24.178;2022-12-05T11:56:00;94649.34;;;8.79;74.36
42335;BME280;27986;42.700;24.178;2022-12-05T12:01:33;94661.28;;;9.25;72.73
42335;BME280;27986;42.700;24.178;2022-12-05T12:12:03;94647.34;;;9.48;70.86
42335;BME280;27986;42.700;24.178;2022-12-05T12:31:05;94601.78;;;9.44;70.83
42335;BME280;27986;42.700;24.178;2022-12-05T12:41:51;94612.34;;;9.17;72.06
42335;BME280;27986;42.700;24.178;2022-12-05T12:52:46;94591.81;;;8.28;80.21
42335;BME280;27986;42.700;24.178;2022-12-05T12:55:27;94616.25;;;8.22;82.50
42335;BME280;27986;42.700;24.178;2022-12-05T13:06:00;94620.22;;;7.89;87.47
42335;BME280;27986;42.700;24.178;2022-12-05T13:08:45;94594.28;;;7.74;85.76
42335;BME280;27986;42.700;24.178;2022-12-05T13:11:14;94591.63;;;8.11;86.11
42335;BME280;27986;42.700;24.178;2022-12-05T13:13:48;94597.81;;;7.54;86.79
42335;BME280;27986;42.700;24.178;2022-12-05T13:16:23;94605.84;;;7.61;87.46
42335;BME280;27986;42.700;24.178;2022-12-05T13:18:50;94602.81;;;7.85;86.51
42335;BME280;27986;42.700;24.178;2022-12-05T13:21:15;94596.19;;;7.47;87.72
42335;BME280;27986;42.700;24.178;2022-12-05T13:23:54;94566.47;;;7.35;87.66
42335;BME280;27986;42.700;24.178;2022-12-05T13:26:21;94579.72;;;7.34;88.16
42335;BME280;27986;42.700;24.178;2022-12-05T13:28:49;94597.22;;;7.29;89.03
42335;BME280;27986;42.700;24.178;2022-12-05T13:31:15;94601.56;;;6.95;91.36
42335;BME280;27986;42.700;24.178;2022-12-05T13:33:44;94590.19;;;6.84;93.32
42335;BME280;27986;42.700;24.178;2022-12-05T13:36:21;94590.69;;;6.83;92.75
42335;BME280;27986;42.700;24.178;2022-12-05T13:39:17;94566.94;;;6.48;94.92
42335;BME280;27986;42.700;24.178;2022-12-05T13:42:02;94580.53;;;6.26;96.85
42335;BME280;27986;42.700;24.178;2022-12-05T13:47:30;94599.28;;;6.79;95.35
42335;BME280;27986;42.700;24.178;2022-12-05T13:50:17;94569.59;;;6.87;92.89
42335;BME280;27986;42.700;24.178;2022-12-05T13:55:23;94606.28;;;7.04;94.66
42335;BME280;27986;42.700;24.178;2022-12-05T13:57:56;94567.84;;;6.90;93.04
